createdAt,value
2018-08-13T00:01:04.804Z,57.79
2018-08-13T00:03:33.167Z,57.74
2018-08-13T00:06:01.550Z,57.90
2018-08-13T00:08:29.973Z,57.39
2018-08-13T00:10:58.360Z,57.59
2018-08-13T00:13:26.749Z,57.90
2018-08-13T00:15:55.163Z,57.48
2018-08-13T00:18:23.538Z,57.33
2018-08-13T00:20:51.913Z,57.54
2018-08-13T00:23:20.236Z,56.38
2018-08-13T00:25:48.616Z,58.89
2018-08-13T00:28:17.003Z,58.88
2018-08-13T00:30:45.403Z,58.98
2018-08-13T00:33:13.844Z,57.87
2018-08-13T00:35:42.270Z,58.97
2018-08-13T00:38:10.675Z,59.85
2018-08-13T00:40:39.027Z,59.79
2018-08-13T00:43:07.612Z,60.33
2018-08-13T00:45:36.043Z,60.29
2018-08-13T00:48:04.561Z,59.64
2018-08-13T00:50:32.928Z,60.29
2018-08-13T00:53:01.316Z,59.48
2018-08-13T00:55:29.698Z,59.41
2018-08-13T00:57:58.058Z,59.84
2018-08-13T01:00:26.495Z,58.47
2018-08-13T01:02:54.882Z,58.81
2018-08-13T01:05:23.362Z,57.81
2018-08-13T01:07:51.703Z,59.74
2018-08-13T01:10:21.450Z,59.08
2018-08-13T01:12:49.883Z,59.10
2018-08-13T01:15:19.232Z,58.34
2018-08-13T01:17:48.944Z,59.25
2018-08-13T01:20:18.243Z,59.03
2018-08-13T01:22:46.702Z,58.15
2018-08-13T01:25:16.417Z,58.42
2018-08-13T01:27:45.143Z,57.81
2018-08-13T01:30:15.105Z,57.56
2018-08-13T01:32:43.556Z,58.17
2018-08-13T01:35:11.947Z,57.63
2018-08-13T01:37:40.347Z,59.54
2018-08-13T01:40:10.060Z,58.25
2018-08-13T01:42:38.600Z,58.01
2018-08-13T01:45:08.451Z,58.44
2018-08-13T01:47:36.853Z,59.35
2018-08-13T01:50:07.089Z,58.82
2018-08-13T01:52:35.427Z,59.74
2018-08-13T01:55:03.859Z,58.97
2018-08-13T01:57:32.264Z,58.32
2018-08-13T02:00:00.661Z,60.13
2018-08-13T02:02:29.097Z,58.78
2018-08-13T02:04:57.494Z,60.20
2018-08-13T02:07:25.890Z,58.13
2018-08-13T02:09:54.251Z,58.86
2018-08-13T02:12:22.596Z,58.39
2018-08-13T02:14:51.686Z,59.29
2018-08-13T02:17:20.147Z,58.66
2018-08-13T02:19:48.510Z,58.40
2018-08-13T02:22:16.874Z,58.99
2018-08-13T02:24:45.282Z,58.93
2018-08-13T02:27:13.683Z,58.89
2018-08-13T02:29:42.112Z,56.29
2018-08-13T02:32:10.510Z,58.58
2018-08-13T02:34:38.941Z,58.57
2018-08-13T02:37:07.371Z,58.97
2018-08-13T02:39:35.714Z,59.27
2018-08-13T02:42:04.100Z,57.55
2018-08-13T02:44:32.491Z,58.58
2018-08-13T02:47:00.808Z,58.68
2018-08-13T02:49:29.197Z,57.48
2018-08-13T02:51:57.608Z,58.31
2018-08-13T02:54:25.977Z,59.31
2018-08-13T02:56:54.309Z,57.91
2018-08-13T02:59:22.766Z,58.42
2018-08-13T03:01:51.147Z,58.48
2018-08-13T03:04:19.505Z,59.05
2018-08-13T03:06:47.992Z,59.78
2018-08-13T03:09:16.366Z,59.12
2018-08-13T03:11:44.772Z,59.25
2018-08-13T03:14:13.216Z,59.15
2018-08-13T03:16:41.596Z,59.95
2018-08-13T03:19:10.025Z,60.22
2018-08-13T03:21:38.453Z,60.74
2018-08-13T03:24:06.917Z,59.94
2018-08-13T03:26:35.275Z,61.39
2018-08-13T03:29:03.737Z,61.18
2018-08-13T03:31:32.099Z,61.03
2018-08-13T03:34:00.467Z,61.08
2018-08-13T03:36:28.814Z,61.34
2018-08-13T03:38:57.213Z,61.91
2018-08-13T03:41:25.602Z,60.78
2018-08-13T03:43:54.000Z,60.84
2018-08-13T03:46:22.397Z,61.91
2018-08-13T03:48:51.068Z,60.88
2018-08-13T03:51:19.455Z,61.48
2018-08-13T03:53:47.865Z,61.83
2018-08-13T03:56:16.147Z,61.75
2018-08-13T03:58:44.515Z,61.06
2018-08-13T04:01:12.865Z,62.62
2018-08-13T04:03:41.240Z,62.47
2018-08-13T04:06:09.583Z,62.02
2018-08-13T04:08:38.224Z,61.78
2018-08-13T04:11:06.794Z,61.42
2018-08-13T04:13:35.255Z,62.61
2018-08-13T04:16:03.736Z,61.87
2018-08-13T04:18:32.087Z,61.61
2018-08-13T04:21:00.551Z,61.18
2018-08-13T04:23:28.905Z,60.96
2018-08-13T04:25:57.327Z,61.38
2018-08-13T04:28:25.698Z,61.57
2018-08-13T04:30:54.124Z,61.96
2018-08-13T04:33:22.521Z,60.95
2018-08-13T04:35:50.918Z,60.07
2018-08-13T04:38:19.584Z,61.39
2018-08-13T04:40:48.028Z,58.20
2018-08-13T04:43:16.395Z,60.15
2018-08-13T04:45:44.840Z,60.59
2018-08-13T04:48:13.252Z,58.37
2018-08-13T04:50:41.624Z,60.21
2018-08-13T04:53:10.139Z,60.48
2018-08-13T04:55:38.544Z,59.36
2018-08-13T04:58:07.052Z,60.96
2018-08-13T05:00:35.448Z,59.83
2018-08-13T05:03:03.970Z,59.78
2018-08-13T05:05:32.400Z,61.14
2018-08-13T05:08:00.746Z,59.98
2018-08-13T05:10:29.119Z,59.55
2018-08-13T05:12:57.670Z,59.94
2018-08-13T05:15:26.020Z,59.30
2018-08-13T05:17:54.358Z,59.78
2018-08-13T05:20:22.802Z,59.16
2018-08-13T05:22:51.200Z,59.76
2018-08-13T05:25:19.553Z,59.05
2018-08-13T05:27:47.981Z,58.62
2018-08-13T05:30:16.352Z,59.50
2018-08-13T05:32:44.743Z,59.52
2018-08-13T05:35:13.160Z,57.42
2018-08-13T05:37:41.562Z,58.14
2018-08-13T05:40:10.829Z,58.92
2018-08-13T05:42:39.675Z,56.46
2018-08-13T05:45:09.480Z,57.57
2018-08-13T05:47:37.951Z,54.95
2018-08-13T05:50:07.890Z,54.00
2018-08-13T05:52:36.319Z,54.95
2018-08-13T05:55:05.047Z,54.34
2018-08-13T05:57:33.470Z,55.96
2018-08-13T06:00:01.984Z,54.66
2018-08-13T06:02:30.423Z,54.45
2018-08-13T06:04:58.852Z,52.90
2018-08-13T06:07:27.343Z,52.51
2018-08-13T06:09:55.729Z,52.86
2018-08-13T06:12:24.145Z,51.35
2018-08-13T06:14:52.473Z,50.30
2018-08-13T06:17:21.517Z,47.42
2018-08-13T06:19:49.921Z,47.24
2018-08-13T06:22:18.309Z,46.31
2018-08-13T06:24:46.743Z,44.40
2018-08-13T06:27:15.160Z,43.03
2018-08-13T06:29:43.798Z,41.06
2018-08-13T06:32:12.219Z,40.77
2018-08-13T06:34:40.647Z,42.24
2018-08-13T06:37:09.145Z,41.94
2018-08-13T06:39:37.490Z,43.11
2018-08-13T06:42:05.848Z,42.93
2018-08-13T06:44:34.238Z,43.62
2018-08-13T06:47:02.616Z,40.82
2018-08-13T06:49:31.097Z,41.34
2018-08-13T06:51:59.642Z,41.63
2018-08-13T06:54:28.025Z,43.42
2018-08-13T06:56:56.442Z,44.25
2018-08-13T06:59:24.837Z,46.64
2018-08-13T07:01:53.415Z,47.29
2018-08-13T07:04:21.879Z,48.65
2018-08-13T07:06:50.569Z,46.80
2018-08-13T07:09:18.966Z,45.64
2018-08-13T07:11:47.357Z,44.08
2018-08-13T07:14:16.160Z,42.20
2018-08-13T07:16:44.554Z,42.22
2018-08-13T07:19:12.916Z,43.08
2018-08-13T07:21:41.257Z,43.58
2018-08-13T07:24:09.660Z,43.29
2018-08-13T07:26:38.086Z,38.95
2018-08-13T07:29:06.571Z,40.35
2018-08-13T07:31:34.977Z,39.93
2018-08-13T07:34:04.433Z,41.32
2018-08-13T07:36:32.879Z,38.52
2018-08-13T07:39:01.334Z,38.72
2018-08-13T07:41:30.101Z,39.39
2018-08-13T07:43:58.507Z,37.78
2018-08-13T07:46:26.937Z,35.80
2018-08-13T07:48:55.569Z,36.84
2018-08-13T07:51:24.235Z,35.46
2018-08-13T07:53:52.667Z,36.08
2018-08-13T07:56:21.130Z,33.79
2018-08-13T07:58:49.491Z,33.66
2018-08-13T08:01:18.632Z,33.65
2018-08-13T08:03:47.069Z,33.92
2018-08-13T08:06:15.727Z,34.55
2018-08-13T08:08:44.154Z,31.26
2018-08-13T08:11:12.599Z,34.02
2018-08-13T08:13:41.086Z,33.03
2018-08-13T08:16:09.441Z,30.05
2018-08-13T08:18:37.849Z,30.34
2018-08-13T08:21:06.428Z,32.10
2018-08-13T08:23:34.880Z,32.67
2018-08-13T08:26:03.310Z,31.80
2018-08-13T08:28:31.731Z,32.59
2018-08-13T08:31:00.234Z,31.41
2018-08-13T08:33:28.697Z,30.29
2018-08-13T08:35:57.082Z,30.86
2018-08-13T08:38:25.622Z,30.87
2018-08-13T08:40:54.621Z,30.50
2018-08-13T08:43:23.002Z,30.28
2018-08-13T08:45:51.440Z,32.88
2018-08-13T08:48:19.848Z,33.47
2018-08-13T08:50:48.544Z,30.59
2018-08-13T08:53:16.924Z,31.79
2018-08-13T08:55:45.368Z,30.95
2018-08-13T08:58:13.792Z,32.25
2018-08-13T09:00:42.234Z,32.22
2018-08-13T09:03:10.697Z,31.30
2018-08-13T09:05:39.127Z,32.46
2018-08-13T09:08:07.562Z,32.09
2018-08-13T09:10:36.026Z,32.54
2018-08-13T09:13:04.573Z,32.57
2018-08-13T09:15:32.930Z,33.45
2018-08-13T09:18:12.614Z,32.13
2018-08-13T09:20:52.238Z,32.91
2018-08-13T09:23:31.900Z,32.50
2018-08-13T09:26:11.569Z,34.39
2018-08-13T09:28:51.189Z,32.31
2018-08-13T09:31:30.767Z,32.28
2018-08-13T09:34:13.788Z,32.70
2018-08-13T09:36:42.296Z,32.56
2018-08-13T09:39:11.332Z,32.73
2018-08-13T09:41:39.710Z,33.78
2018-08-13T09:44:08.190Z,33.11
2018-08-13T09:46:36.520Z,33.29
2018-08-13T09:49:05.190Z,33.62
2018-08-13T09:51:33.636Z,33.78
2018-08-13T09:54:02.091Z,34.08
2018-08-13T09:56:30.480Z,34.15
2018-08-13T09:58:58.862Z,35.56
2018-08-13T10:01:27.260Z,35.28
2018-08-13T10:03:55.759Z,35.70
2018-08-13T10:06:24.128Z,36.09
2018-08-13T10:08:52.517Z,36.84
2018-08-13T10:11:20.932Z,37.30
2018-08-13T10:13:49.324Z,38.25
2018-08-13T10:16:17.658Z,38.33
2018-08-13T10:18:46.665Z,38.22
2018-08-13T10:21:15.096Z,39.95
2018-08-13T10:23:43.536Z,39.13
2018-08-13T10:26:11.960Z,39.67
2018-08-13T10:28:40.336Z,41.11
2018-08-13T10:31:08.730Z,41.28
2018-08-13T10:33:37.142Z,40.93
2018-08-13T10:36:05.615Z,40.72
2018-08-13T10:38:34.127Z,42.59
2018-08-13T10:41:02.536Z,41.76
2018-08-13T10:43:31.164Z,42.04
2018-08-13T10:45:59.561Z,43.20
2018-08-13T10:48:28.038Z,42.44
2018-08-13T10:50:56.439Z,42.72
2018-08-13T10:53:24.818Z,44.97
2018-08-13T10:55:53.280Z,47.01
2018-08-13T10:58:21.739Z,48.56
2018-08-13T11:00:50.171Z,50.47
2018-08-13T11:03:18.635Z,54.21
2018-08-13T11:05:47.166Z,56.40
2018-08-13T11:08:15.599Z,57.65
2018-08-13T11:10:43.966Z,55.36
2018-08-13T11:13:12.356Z,57.16
2018-08-13T11:15:40.742Z,60.07
2018-08-13T11:18:09.173Z,63.74
2018-08-13T11:20:37.518Z,61.28
2018-08-13T11:23:05.947Z,61.97
2018-08-13T11:25:34.334Z,63.07
2018-08-13T11:28:02.784Z,62.10
2018-08-13T11:30:31.226Z,63.94
2018-08-13T11:32:59.665Z,63.83
2018-08-13T11:35:28.103Z,65.28
2018-08-13T11:37:56.516Z,65.54
2018-08-13T11:40:24.895Z,65.51
2018-08-13T11:42:53.275Z,63.29
2018-08-13T11:45:21.690Z,64.56
2018-08-13T11:47:50.063Z,61.25
2018-08-13T11:50:19.725Z,62.73
2018-08-13T11:52:49.255Z,62.43
2018-08-13T11:55:18.236Z,60.46
2018-08-13T11:57:47.448Z,59.27
2018-08-13T12:00:15.968Z,60.32
2018-08-13T12:02:44.535Z,60.13
2018-08-13T12:05:14.448Z,61.20
2018-08-13T12:07:43.573Z,59.32
2018-08-13T12:10:12.820Z,63.00
2018-08-13T12:12:42.140Z,62.53
2018-08-13T12:15:11.812Z,59.77
2018-08-13T12:17:40.943Z,62.25
2018-08-13T12:20:12.392Z,59.48
2018-08-13T12:22:41.023Z,61.05
2018-08-13T12:25:09.913Z,59.41
2018-08-13T12:27:38.354Z,60.71
2018-08-13T12:30:09.162Z,62.46
2018-08-13T12:32:37.638Z,61.92
2018-08-13T12:35:06.326Z,64.17
2018-08-13T12:37:34.768Z,64.83
2018-08-13T12:40:03.184Z,63.93
2018-08-13T12:42:31.597Z,64.35
2018-08-13T12:45:00.023Z,65.63
2018-08-13T12:47:28.484Z,67.22
2018-08-13T12:49:56.874Z,66.51
2018-08-13T12:52:25.286Z,68.18
2018-08-13T12:54:53.691Z,66.90
2018-08-13T12:57:22.101Z,68.46
2018-08-13T12:59:50.511Z,68.97
2018-08-13T13:02:18.934Z,69.03
2018-08-13T13:04:47.351Z,67.89
2018-08-13T13:07:15.822Z,67.35
2018-08-13T13:09:44.311Z,68.18
2018-08-13T13:12:12.786Z,68.20
2018-08-13T13:14:41.256Z,66.93
2018-08-13T13:17:09.677Z,67.38
2018-08-13T13:19:38.066Z,69.07
2018-08-13T13:22:06.455Z,68.49
2018-08-13T13:24:34.818Z,67.58
2018-08-13T13:27:03.238Z,68.14
2018-08-13T13:29:31.723Z,67.63
2018-08-13T13:32:00.111Z,69.08
2018-08-13T13:34:28.504Z,67.44
2018-08-13T13:36:56.998Z,66.50
2018-08-13T13:39:25.450Z,67.52
2018-08-13T13:41:53.900Z,66.13
2018-08-13T13:44:22.431Z,67.20
2018-08-13T13:46:50.788Z,66.48
2018-08-13T13:49:19.215Z,66.68
2018-08-13T13:51:47.656Z,67.13
2018-08-13T13:54:16.088Z,65.85
2018-08-13T13:56:44.570Z,66.30
2018-08-13T13:59:13.035Z,64.96
2018-08-13T14:01:41.574Z,64.84
2018-08-13T14:04:10.007Z,63.53
2018-08-13T14:06:38.439Z,63.46
2018-08-13T14:09:09.118Z,62.37
2018-08-13T14:11:38.178Z,62.43
2018-08-13T14:14:07.567Z,62.22
2018-08-13T14:16:36.032Z,60.97
2018-08-13T14:19:04.742Z,60.57
2018-08-13T14:21:33.198Z,59.27
2018-08-13T14:24:01.620Z,60.66
2018-08-13T14:26:30.065Z,61.39
2018-08-13T14:28:58.566Z,59.88
2018-08-13T14:31:29.193Z,60.49
2018-08-13T14:33:57.630Z,60.35
2018-08-13T14:36:26.104Z,60.57
2018-08-13T14:38:58.328Z,61.48
2018-08-13T14:41:26.740Z,60.23
2018-08-13T14:43:55.814Z,58.86
2018-08-13T14:46:24.192Z,58.09
2018-08-13T14:48:52.855Z,57.00
2018-08-13T14:51:21.498Z,57.42
2018-08-13T14:53:49.911Z,57.79
2018-08-13T14:56:19.254Z,57.46
2018-08-13T14:58:48.129Z,56.71
2018-08-13T15:01:16.514Z,55.64
2018-08-13T15:03:44.890Z,56.60
2018-08-13T15:06:13.284Z,55.94
2018-08-13T15:08:41.683Z,56.79
2018-08-13T15:11:10.139Z,57.42
2018-08-13T15:13:38.518Z,56.87
2018-08-13T15:16:06.938Z,58.15
2018-08-13T15:18:37.298Z,58.56
2018-08-13T15:21:09.522Z,58.77
2018-08-13T15:23:39.389Z,58.32
2018-08-13T15:26:09.599Z,59.41
2018-08-13T15:28:39.515Z,59.90
2018-08-13T15:31:14.839Z,59.99
2018-08-13T15:33:44.216Z,59.10
2018-08-13T15:36:12.644Z,60.40
2018-08-13T15:38:41.111Z,60.28
2018-08-13T15:41:09.483Z,60.98
2018-08-13T15:43:37.900Z,59.88
2018-08-13T15:46:06.324Z,60.79
2018-08-13T15:48:34.713Z,60.88
2018-08-13T15:51:03.058Z,61.64
2018-08-13T15:53:32.929Z,61.19
2018-08-13T15:56:01.454Z,62.06
2018-08-13T15:58:32.360Z,61.03
2018-08-13T16:01:00.762Z,61.24
2018-08-13T16:03:29.292Z,62.03
2018-08-13T16:05:58.976Z,61.35
2018-08-13T16:08:27.446Z,62.53
2018-08-13T16:10:56.061Z,61.65
2018-08-13T16:13:24.831Z,62.05
2018-08-13T16:15:55.399Z,62.72
2018-08-13T16:18:23.797Z,62.10
2018-08-13T16:20:52.367Z,63.11
2018-08-13T16:23:22.801Z,63.25
2018-08-13T16:25:51.282Z,63.95
2018-08-13T16:28:20.070Z,63.63
2018-08-13T16:30:48.479Z,62.93
2018-08-13T16:33:17.919Z,63.14
2018-08-13T16:35:49.926Z,62.81
2018-08-13T16:38:18.472Z,63.06
2018-08-13T16:40:47.024Z,63.08
2018-08-13T16:43:15.400Z,63.97
2018-08-13T16:45:43.803Z,64.39
2018-08-13T16:48:12.274Z,63.69
2018-08-13T16:50:40.672Z,64.61
2018-08-13T16:53:09.730Z,63.89
2018-08-13T16:55:38.265Z,63.77
2018-08-13T16:58:06.996Z,63.12
2018-08-13T17:00:35.375Z,63.86
2018-08-13T17:03:04.514Z,64.13
2018-08-13T17:05:34.765Z,63.56
2018-08-13T17:08:03.344Z,64.66
2018-08-13T17:10:32.311Z,64.67
2018-08-13T17:13:01.212Z,65.37
2018-08-13T17:15:31.320Z,65.71
2018-08-13T17:18:01.986Z,65.73
2018-08-13T17:20:59.256Z,66.17
2018-08-13T17:23:27.729Z,66.75
2018-08-13T17:25:56.116Z,67.26
2018-08-13T17:28:24.603Z,66.95
2018-08-13T17:30:53.058Z,67.07
2018-08-13T17:33:21.613Z,66.78
2018-08-13T17:35:50.124Z,67.21
2018-08-13T17:38:18.602Z,67.26
2018-08-13T17:40:46.982Z,67.01
2018-08-13T17:43:15.639Z,66.91
2018-08-13T17:45:43.962Z,67.26
2018-08-13T17:48:12.507Z,67.25
2018-08-13T17:50:40.987Z,67.31
2018-08-13T17:53:10.406Z,66.91
2018-08-13T17:55:38.894Z,67.11
2018-08-13T17:58:07.339Z,67.47
2018-08-13T18:00:35.858Z,67.87
2018-08-13T18:03:04.338Z,67.68
2018-08-13T18:05:32.780Z,67.96
2018-08-13T18:08:01.166Z,67.57
2018-08-13T18:10:31.647Z,68.18
2018-08-13T18:13:01.604Z,68.45
2018-08-13T18:15:30.293Z,68.23
2018-08-13T18:17:58.827Z,68.40
2018-08-13T18:20:27.293Z,68.54
2018-08-13T18:22:55.707Z,68.52
2018-08-13T18:25:24.194Z,68.55
2018-08-13T18:27:53.121Z,68.55
2018-08-13T18:30:25.660Z,68.42
2018-08-13T18:32:54.465Z,68.50
2018-08-13T18:35:23.088Z,68.43
2018-08-13T18:37:54.748Z,68.88
2018-08-13T18:40:27.239Z,69.40
2018-08-13T18:42:55.651Z,69.29
2018-08-13T18:45:24.369Z,69.50
2018-08-13T18:47:52.899Z,69.97
2018-08-13T18:50:22.214Z,69.75
2018-08-13T18:52:50.876Z,69.70
2018-08-13T18:55:20.737Z,70.06
2018-08-13T18:57:49.531Z,70.33
2018-08-13T19:00:24.412Z,70.49
2018-08-13T19:02:53.117Z,70.75
2018-08-13T19:05:22.253Z,70.95
2018-08-13T19:07:51.123Z,71.05
2018-08-13T19:10:20.380Z,70.97
2018-08-13T19:12:48.812Z,71.57
2018-08-13T19:15:19.353Z,72.13
2018-08-13T19:17:48.062Z,72.21
2018-08-13T19:20:16.601Z,72.02
2018-08-13T19:22:45.483Z,72.10
2018-08-13T19:25:19.376Z,72.70
2018-08-13T19:27:47.979Z,72.54
2018-08-13T19:33:20.515Z,73.04
2018-08-13T19:35:49.206Z,73.33
2018-08-13T19:38:18.424Z,73.85
2018-08-13T19:40:46.856Z,73.89
2018-08-13T19:43:15.226Z,74.59
2018-08-13T19:45:43.639Z,74.20
2018-08-13T19:48:12.058Z,74.91
2018-08-13T19:50:40.524Z,74.85
2018-08-13T19:53:08.919Z,75.32
2018-08-13T19:55:37.407Z,75.46
2018-08-13T19:58:05.855Z,76.40
2018-08-13T20:00:34.231Z,76.23
2018-08-13T20:03:02.624Z,76.46
2018-08-13T20:05:31.082Z,76.71
2018-08-13T20:07:59.568Z,76.62
2018-08-13T20:10:28.051Z,77.13
2018-08-13T20:12:56.438Z,77.70
2018-08-13T20:15:24.852Z,77.91
2018-08-13T20:17:53.444Z,78.17
2018-08-13T20:20:22.024Z,78.01
2018-08-13T20:22:50.913Z,78.09
2018-08-13T20:25:20.321Z,78.62
2018-08-13T20:27:49.489Z,78.30
2018-08-13T20:30:19.983Z,78.50
2018-08-13T20:32:49.533Z,79.21
2018-08-13T20:35:18.299Z,78.44
2018-08-13T20:37:46.753Z,78.80
2018-08-13T20:40:16.883Z,78.46
2018-08-13T20:42:46.119Z,78.72
2018-08-13T20:45:16.334Z,78.93
2018-08-13T20:47:45.107Z,79.52
2018-08-13T20:50:15.191Z,79.72
2018-08-13T20:52:44.009Z,79.70
2018-08-13T20:55:28.166Z,80.06
2018-08-13T20:57:56.624Z,79.39
2018-08-13T21:00:26.759Z,79.59
2018-08-13T21:02:55.182Z,79.43
2018-08-13T21:05:23.577Z,80.06
2018-08-13T21:07:52.038Z,79.48
2018-08-13T21:10:21.925Z,79.24
2018-08-13T21:12:50.773Z,80.13
2018-08-13T21:15:19.188Z,79.89
2018-08-13T21:17:47.792Z,79.67
2018-08-13T21:20:20.408Z,80.00
2018-08-13T21:22:48.916Z,79.37
2018-08-13T21:25:17.384Z,80.37
2018-08-13T21:27:46.146Z,80.00
2018-08-13T21:30:14.548Z,79.71
2018-08-13T21:32:43.590Z,80.26
2018-08-13T21:35:15.785Z,79.83
2018-08-13T21:37:44.578Z,80.69
2018-08-13T21:40:13.012Z,81.12
2018-08-13T21:42:41.516Z,80.53
2018-08-13T21:45:10.798Z,81.36
2018-08-13T21:47:39.529Z,81.50
2018-08-13T21:50:10.372Z,81.77
2018-08-13T21:52:38.852Z,81.93
2018-08-13T21:55:08.169Z,82.06
2018-08-13T21:57:36.635Z,82.01
2018-08-13T22:00:08.849Z,81.83
2018-08-13T22:02:37.844Z,81.83
2018-08-13T22:05:06.275Z,81.47
2018-08-13T22:07:34.741Z,81.94
2018-08-13T22:10:03.395Z,82.73
2018-08-13T22:12:31.771Z,82.66
2018-08-13T22:15:00.204Z,83.31
2018-08-13T22:17:28.712Z,83.41
2018-08-13T22:19:57.161Z,83.70
2018-08-13T22:22:25.616Z,83.51
2018-08-13T22:25:02.025Z,82.57
2018-08-13T22:27:30.498Z,83.25
2018-08-13T22:29:59.111Z,83.65
2018-08-13T22:32:27.591Z,83.20
2018-08-13T22:34:55.968Z,83.18
2018-08-13T22:37:24.870Z,83.63
2018-08-13T22:39:53.408Z,83.77
2018-08-13T22:42:21.811Z,84.26
2018-08-13T22:44:50.188Z,84.58
2018-08-13T22:47:18.630Z,84.55
2018-08-13T22:49:47.081Z,84.49
2018-08-13T22:52:16.064Z,84.83
2018-08-13T22:54:44.678Z,85.43
2018-08-13T22:57:13.057Z,85.07
2018-08-13T22:59:41.609Z,85.58
2018-08-13T23:02:09.996Z,85.99
2018-08-13T23:04:38.391Z,85.48
2018-08-13T23:07:07.339Z,85.92
2018-08-13T23:09:35.779Z,85.97
2018-08-13T23:12:07.785Z,85.31
2018-08-13T23:14:36.592Z,85.31
2018-08-13T23:17:05.060Z,85.53
2018-08-13T23:19:33.622Z,85.80
2018-08-13T23:22:02.024Z,85.73
2018-08-13T23:24:30.680Z,86.28
2018-08-13T23:26:59.003Z,85.64
2018-08-13T23:29:27.390Z,86.84
2018-08-13T23:31:55.846Z,85.70
2018-08-13T23:34:24.241Z,86.87
2018-08-13T23:36:53.000Z,86.22
2018-08-13T23:39:21.414Z,87.04
2018-08-13T23:41:49.805Z,86.77
2018-08-13T23:44:18.319Z,87.11
2018-08-13T23:46:46.741Z,87.12
2018-08-13T23:49:15.155Z,86.71
2018-08-13T23:51:43.575Z,86.80
2018-08-13T23:54:12.007Z,87.35
2018-08-13T23:56:40.407Z,86.99
2018-08-13T23:59:08.741Z,86.80
